createdAt,value
2018-01-18T00:00:53.342Z,1.73
2018-01-18T00:01:56.338Z,1.75
2018-01-18T00:02:59.428Z,1.80
2018-01-18T00:04:02.518Z,1.77
2018-01-18T00:05:05.507Z,1.74
2018-01-18T00:06:08.516Z,1.80
2018-01-18T00:07:11.410Z,1.80
2018-01-18T00:08:14.373Z,1.73
2018-01-18T00:09:17.308Z,1.71
2018-01-18T00:10:20.688Z,1.70
2018-01-18T00:11:23.606Z,1.68
2018-01-18T00:12:26.541Z,1.67
2018-01-18T00:13:29.538Z,1.70
2018-01-18T00:14:32.559Z,1.66
2018-01-18T00:15:35.577Z,1.64
2018-01-18T00:16:38.941Z,1.62
2018-01-18T00:17:41.838Z,1.59
2018-01-18T00:18:44.793Z,1.61
2018-01-18T00:19:47.716Z,1.63
2018-01-18T00:20:50.672Z,1.66
2018-01-18T00:21:53.613Z,1.66
2018-01-18T00:22:57.023Z,1.68
2018-01-18T00:23:59.964Z,1.66
2018-01-18T00:25:02.892Z,1.66
2018-01-18T00:26:05.823Z,1.63
2018-01-18T00:27:08.792Z,1.66
2018-01-18T00:28:11.754Z,1.72
2018-01-18T00:29:15.184Z,1.69
2018-01-18T00:30:18.110Z,1.63
2018-01-18T00:31:21.066Z,1.59
2018-01-18T00:32:24.002Z,1.57
2018-01-18T00:33:27.031Z,1.66
2018-01-18T00:34:29.980Z,1.63
2018-01-18T00:35:34.139Z,1.57
2018-01-18T00:36:37.103Z,1.59
2018-01-18T00:37:40.071Z,1.65
2018-01-18T00:38:42.986Z,1.60
2018-01-18T00:39:45.893Z,1.63
2018-01-18T00:40:48.802Z,1.61
2018-01-18T00:41:52.107Z,1.58
2018-01-18T00:42:55.013Z,1.60
2018-01-18T00:43:57.908Z,1.66
2018-01-18T00:45:00.846Z,1.68
2018-01-18T00:46:03.764Z,1.66
2018-01-18T00:47:06.644Z,1.66
2018-01-18T00:48:09.948Z,1.64
2018-01-18T00:49:12.873Z,1.66
2018-01-18T00:50:15.809Z,1.71
2018-01-18T00:51:18.721Z,1.72
2018-01-18T00:52:21.624Z,1.71
2018-01-18T00:53:24.626Z,1.69
2018-01-18T00:54:28.007Z,1.68
2018-01-18T00:55:30.902Z,1.62
2018-01-18T00:56:33.792Z,1.64
2018-01-18T00:57:36.697Z,1.71
2018-01-18T00:58:39.602Z,1.71
2018-01-18T00:59:43.175Z,1.76
2018-01-18T01:00:47.148Z,1.69
2018-01-18T01:01:50.078Z,1.65
2018-01-18T01:02:52.980Z,1.66
2018-01-18T01:03:56.472Z,1.69
2018-01-18T01:04:59.996Z,1.73
2018-01-18T01:06:03.758Z,1.75
2018-01-18T01:07:07.415Z,1.74
2018-01-18T01:08:10.589Z,1.74
2018-01-18T01:09:14.479Z,1.82
2018-01-18T01:10:17.372Z,1.80
2018-01-18T01:11:21.325Z,1.76
2018-01-18T01:12:25.309Z,1.73
2018-01-18T01:13:28.980Z,1.82
2018-01-18T01:14:32.785Z,1.79
2018-01-18T01:15:36.524Z,1.77
2018-01-18T01:16:40.564Z,1.76
2018-01-18T01:17:43.583Z,1.76
2018-01-18T01:18:46.467Z,1.80
2018-01-18T01:19:49.878Z,1.81
2018-01-18T01:20:52.796Z,1.80
2018-01-18T01:21:55.681Z,1.79
2018-01-18T01:22:58.578Z,1.77
2018-01-18T01:24:01.490Z,1.75
2018-01-18T01:25:04.478Z,1.71
2018-01-18T01:26:07.695Z,1.79
2018-01-18T01:27:10.623Z,1.78
2018-01-18T01:28:13.509Z,1.82
2018-01-18T01:29:16.457Z,1.82
2018-01-18T01:30:19.429Z,1.83
2018-01-18T01:31:22.336Z,1.83
2018-01-18T01:32:25.533Z,1.84
2018-01-18T01:33:28.409Z,1.87
2018-01-18T01:34:31.325Z,1.87
2018-01-18T01:35:34.214Z,1.87
2018-01-18T01:36:37.159Z,1.86
2018-01-18T01:37:40.081Z,1.84
2018-01-18T01:38:43.453Z,1.84
2018-01-18T01:39:46.342Z,1.81
2018-01-18T01:40:49.277Z,1.77
2018-01-18T01:41:52.199Z,1.83
2018-01-18T01:42:55.086Z,1.83
2018-01-18T01:43:58.045Z,1.83
2018-01-18T01:45:01.266Z,1.81
2018-01-18T01:46:04.335Z,1.78
2018-01-18T01:47:07.272Z,1.81
2018-01-18T01:48:10.254Z,1.83
2018-01-18T01:49:13.194Z,1.88
2018-01-18T01:50:16.892Z,1.85
2018-01-18T01:51:20.133Z,1.79
2018-01-18T01:52:23.022Z,1.76
2018-01-18T01:53:25.921Z,1.74
2018-01-18T01:54:28.852Z,1.74
2018-01-18T01:55:31.761Z,1.78
2018-01-18T01:56:34.719Z,1.75
2018-01-18T01:57:38.219Z,1.74
2018-01-18T01:58:41.150Z,1.76
2018-01-18T01:59:44.090Z,1.79
2018-01-18T02:00:47.121Z,1.77
2018-01-18T02:01:50.018Z,1.75
2018-01-18T02:02:52.961Z,1.78
2018-01-18T02:03:56.316Z,1.78
2018-01-18T02:04:59.201Z,1.78
2018-01-18T02:06:02.147Z,1.80
2018-01-18T02:07:05.085Z,1.78
2018-01-18T02:08:08.521Z,1.77
2018-01-18T02:09:11.438Z,1.78
2018-01-18T02:10:14.848Z,1.74
2018-01-18T02:11:17.777Z,1.75
2018-01-18T02:12:20.672Z,1.76
2018-01-18T02:13:23.633Z,1.76
2018-01-18T02:14:26.589Z,1.77
2018-01-18T02:15:29.613Z,1.85
2018-01-18T02:16:32.969Z,1.85
2018-01-18T02:17:35.813Z,1.78
2018-01-18T02:18:38.684Z,1.75
2018-01-18T02:19:41.529Z,1.77
2018-01-18T02:20:44.370Z,1.71
2018-01-18T02:21:47.224Z,1.75
2018-01-18T02:22:50.483Z,1.71
2018-01-18T02:23:53.386Z,1.69
2018-01-18T02:24:56.258Z,1.69
2018-01-18T02:25:59.137Z,1.70
2018-01-18T02:27:37.027Z,1.69
2018-01-18T02:28:40.046Z,1.66
2018-01-18T02:29:43.277Z,1.69
2018-01-18T02:30:46.098Z,1.55
2018-01-18T02:31:48.974Z,1.51
2018-01-18T02:32:51.773Z,1.47
2018-01-18T02:33:54.736Z,1.48
2018-01-18T02:34:57.675Z,1.46
2018-01-18T02:36:01.040Z,1.46
2018-01-18T02:37:04.061Z,1.45
2018-01-18T02:38:07.001Z,1.46
2018-01-18T02:39:09.976Z,1.44
2018-01-18T02:40:13.051Z,1.42
2018-01-18T02:41:16.016Z,1.45
2018-01-18T02:42:19.516Z,1.45
2018-01-18T02:43:22.552Z,1.42
2018-01-18T02:44:25.580Z,1.39
2018-01-18T02:45:28.487Z,1.35
2018-01-18T02:46:31.677Z,1.34
2018-01-18T02:47:34.633Z,1.34
2018-01-18T02:48:38.128Z,1.34
2018-01-18T02:49:41.126Z,1.36
2018-01-18T02:50:44.123Z,1.33
2018-01-18T02:51:47.070Z,1.33
2018-01-18T02:52:50.699Z,1.35
2018-01-18T02:53:53.619Z,1.31
2018-01-18T02:54:57.026Z,1.31
2018-01-18T02:55:59.971Z,1.29
2018-01-18T02:57:02.975Z,1.24
2018-01-18T02:58:05.933Z,1.24
2018-01-18T02:59:08.872Z,1.31
2018-01-18T03:00:11.806Z,1.36
2018-01-18T03:01:15.130Z,1.37
2018-01-18T03:02:18.133Z,1.36
2018-01-18T03:03:21.093Z,1.32
2018-01-18T03:04:24.047Z,1.35
2018-01-18T03:05:26.975Z,1.37
2018-01-18T03:06:29.903Z,1.41
2018-01-18T03:07:33.297Z,1.43
2018-01-18T03:08:36.215Z,1.46
2018-01-18T03:09:39.142Z,1.42
2018-01-18T03:10:42.051Z,1.44
2018-01-18T03:11:44.968Z,1.45
2018-01-18T03:12:47.944Z,1.43
2018-01-18T03:13:51.352Z,1.45
2018-01-18T03:14:54.299Z,1.45
2018-01-18T03:15:57.216Z,1.47
2018-01-18T03:17:00.223Z,1.52
2018-01-18T03:18:03.117Z,1.51
2018-01-18T03:19:06.092Z,1.50
2018-01-18T03:20:09.491Z,1.49
2018-01-18T03:21:12.406Z,1.49
2018-01-18T03:22:15.283Z,1.49
2018-01-18T03:23:18.217Z,1.51
2018-01-18T03:24:21.129Z,1.57
2018-01-18T03:25:24.034Z,1.61
2018-01-18T03:26:27.255Z,1.61
2018-01-18T03:27:30.173Z,1.62
2018-01-18T03:28:33.104Z,1.61
2018-01-18T03:29:36.024Z,1.61
2018-01-18T03:30:38.958Z,1.60
2018-01-18T03:31:41.905Z,1.62
2018-01-18T03:32:45.151Z,1.68
2018-01-18T03:33:48.104Z,1.66
2018-01-18T03:34:51.044Z,1.67
2018-01-18T03:35:53.965Z,1.76
2018-01-18T03:36:57.832Z,1.80
2018-01-18T03:38:00.720Z,1.83
2018-01-18T03:39:04.066Z,1.81
2018-01-18T03:40:06.988Z,1.83
2018-01-18T03:41:09.900Z,1.81
2018-01-18T03:42:12.848Z,1.81
2018-01-18T03:43:15.778Z,1.82
2018-01-18T03:44:18.728Z,1.84
2018-01-18T03:45:22.275Z,1.88
2018-01-18T03:46:25.204Z,1.86
2018-01-18T03:47:28.111Z,1.85
2018-01-18T03:48:31.011Z,1.90
2018-01-18T03:49:33.936Z,1.91
2018-01-18T03:50:36.827Z,1.91
2018-01-18T03:51:40.129Z,1.92
2018-01-18T03:52:43.031Z,1.90
2018-01-18T03:53:45.979Z,1.88
2018-01-18T03:54:48.937Z,1.85
2018-01-18T03:55:51.872Z,1.89
2018-01-18T03:56:54.833Z,1.89
2018-01-18T03:57:58.235Z,1.87
2018-01-18T03:59:01.221Z,1.83
2018-01-18T04:00:04.184Z,1.82
2018-01-18T04:01:07.114Z,1.83
2018-01-18T04:02:10.076Z,1.82
2018-01-18T04:03:13.025Z,1.82
2018-01-18T04:04:16.273Z,1.85
2018-01-18T04:05:19.399Z,1.82
2018-01-18T04:06:22.364Z,1.79
2018-01-18T04:07:25.311Z,1.77
2018-01-18T04:08:28.379Z,1.76
2018-01-18T04:09:31.356Z,1.75
2018-01-18T04:10:34.730Z,1.74
2018-01-18T04:11:37.741Z,1.75
2018-01-18T04:12:40.692Z,1.75
2018-01-18T04:13:43.667Z,1.74
2018-01-18T04:14:46.494Z,1.71
2018-01-18T04:15:49.322Z,1.70
2018-01-18T04:16:52.487Z,1.71
2018-01-18T04:17:55.486Z,1.70
2018-01-18T04:18:58.432Z,1.71
2018-01-18T04:20:01.454Z,1.66
2018-01-18T04:21:04.390Z,1.69
2018-01-18T04:22:07.328Z,1.68
2018-01-18T04:23:10.699Z,1.65
2018-01-18T04:24:13.652Z,1.63
2018-01-18T04:25:16.571Z,1.62
2018-01-18T04:26:19.515Z,1.61
2018-01-18T04:27:22.453Z,1.60
2018-01-18T04:28:25.409Z,1.58
2018-01-18T04:29:28.714Z,1.61
2018-01-18T04:30:31.688Z,1.60
2018-01-18T04:31:34.615Z,1.58
2018-01-18T04:32:37.571Z,1.57
2018-01-18T04:33:40.515Z,1.58
2018-01-18T04:34:43.463Z,1.54
2018-01-18T04:35:46.748Z,1.54
2018-01-18T04:36:49.686Z,1.54
2018-01-18T04:37:52.635Z,1.55
2018-01-18T04:38:55.635Z,1.53
2018-01-18T04:39:58.567Z,1.53
2018-01-18T04:41:01.501Z,1.54
2018-01-18T04:42:04.738Z,1.52
2018-01-18T04:43:07.690Z,1.54
2018-01-18T04:44:10.880Z,1.49
2018-01-18T04:45:13.859Z,1.47
2018-01-18T04:46:16.911Z,1.49
2018-01-18T04:47:20.002Z,1.45
2018-01-18T04:48:23.266Z,1.41
2018-01-18T04:49:26.280Z,1.42
2018-01-18T04:50:29.246Z,1.41
2018-01-18T04:51:32.239Z,1.42
2018-01-18T04:52:35.239Z,1.43
2018-01-18T04:53:38.233Z,1.44
2018-01-18T04:54:41.514Z,1.46
2018-01-18T04:55:44.417Z,1.43
2018-01-18T04:56:47.305Z,1.43
2018-01-18T04:57:50.270Z,1.39
2018-01-18T04:58:53.236Z,1.38
2018-01-18T04:59:56.247Z,1.39
2018-01-18T05:00:59.711Z,1.38
2018-01-18T05:02:02.678Z,1.33
2018-01-18T05:03:05.604Z,1.32
2018-01-18T05:04:08.546Z,1.32
2018-01-18T05:05:11.483Z,1.34
2018-01-18T05:06:14.395Z,1.34
2018-01-18T05:07:18.597Z,1.32
2018-01-18T05:08:21.536Z,1.34
2018-01-18T05:09:24.501Z,1.33
2018-01-18T05:10:27.440Z,1.30
2018-01-18T05:11:30.366Z,1.31
2018-01-18T05:12:33.317Z,1.34
2018-01-18T05:13:36.772Z,1.34
2018-01-18T05:14:39.700Z,1.33
2018-01-18T05:15:42.618Z,1.32
2018-01-18T05:16:45.567Z,1.35
2018-01-18T05:17:48.564Z,1.34
2018-01-18T05:18:51.500Z,1.30
2018-01-18T05:19:54.856Z,1.33
2018-01-18T05:20:57.799Z,1.34
2018-01-18T05:22:00.888Z,1.38
2018-01-18T05:23:03.834Z,1.42
2018-01-18T05:24:06.820Z,1.46
2018-01-18T05:25:09.750Z,1.50
2018-01-18T05:26:13.081Z,1.47
2018-01-18T05:27:16.053Z,1.42
2018-01-18T05:28:18.995Z,1.43
2018-01-18T05:29:21.926Z,1.43
2018-01-18T05:30:24.816Z,1.43
2018-01-18T05:31:27.772Z,1.39
2018-01-18T05:32:31.116Z,1.39
2018-01-18T05:33:34.024Z,1.41
2018-01-18T05:34:36.970Z,1.43
2018-01-18T05:35:39.948Z,1.38
2018-01-18T05:36:42.880Z,1.45
2018-01-18T05:37:45.804Z,1.47
2018-01-18T05:38:49.270Z,1.51
2018-01-18T05:39:52.215Z,1.48
2018-01-18T05:40:55.146Z,1.46
2018-01-18T05:41:58.075Z,1.48
2018-01-18T05:43:00.982Z,1.48
2018-01-18T05:44:03.967Z,1.45
2018-01-18T05:45:07.211Z,1.43
2018-01-18T05:46:10.150Z,1.44
2018-01-18T05:47:13.355Z,1.44
2018-01-18T05:48:16.307Z,1.44
2018-01-18T05:49:19.268Z,1.43
2018-01-18T05:50:22.215Z,1.42
2018-01-18T05:51:25.511Z,1.40
2018-01-18T05:52:28.441Z,1.43
2018-01-18T05:53:31.468Z,1.43
2018-01-18T05:54:34.426Z,1.49
2018-01-18T05:55:37.385Z,1.51
2018-01-18T05:56:40.420Z,1.52
2018-01-18T05:57:43.806Z,1.55
2018-01-18T05:58:46.764Z,1.54
2018-01-18T05:59:49.777Z,1.52
2018-01-18T06:00:52.697Z,1.51
2018-01-18T06:01:55.614Z,1.53
2018-01-18T06:02:58.528Z,1.59
2018-01-18T06:04:01.905Z,1.55
2018-01-18T06:05:04.813Z,1.57
2018-01-18T06:06:07.802Z,1.55
2018-01-18T06:07:10.773Z,1.58
2018-01-18T06:08:14.658Z,1.58
2018-01-18T06:09:17.571Z,1.63
2018-01-18T06:10:20.968Z,1.62
2018-01-18T06:11:23.850Z,1.62
2018-01-18T06:12:26.815Z,1.64
2018-01-18T06:13:29.797Z,1.63
2018-01-18T06:14:32.736Z,1.70
2018-01-18T06:15:35.662Z,1.95
2018-01-18T06:16:38.988Z,1.92
2018-01-18T06:17:41.988Z,1.94
2018-01-18T06:18:45.501Z,2.00
2018-01-18T06:19:48.422Z,2.02
2018-01-18T06:20:51.352Z,1.96
2018-01-18T06:21:54.325Z,1.95
2018-01-18T06:22:57.735Z,1.98
2018-01-18T06:24:00.709Z,1.96
2018-01-18T06:25:03.707Z,2.02
2018-01-18T06:26:06.713Z,2.07
2018-01-18T06:27:09.623Z,2.04
2018-01-18T06:28:12.599Z,2.05
2018-01-18T06:29:16.022Z,2.04
2018-01-18T06:30:18.991Z,2.02
2018-01-18T06:31:21.881Z,2.01
2018-01-18T06:32:24.688Z,2.02
2018-01-18T06:33:27.558Z,1.98
2018-01-18T06:34:30.395Z,2.01
2018-01-18T06:35:33.747Z,2.10
2018-01-18T06:36:36.607Z,2.20
2018-01-18T06:37:39.617Z,2.26
2018-01-18T06:38:43.191Z,2.33
2018-01-18T06:39:46.126Z,2.34
2018-01-18T06:40:49.059Z,2.38
2018-01-18T06:41:52.971Z,2.41
2018-01-18T06:42:55.916Z,2.40
2018-01-18T06:43:59.532Z,2.41
2018-01-18T06:45:02.500Z,2.42
2018-01-18T06:46:05.524Z,2.48
2018-01-18T06:47:08.426Z,2.55
2018-01-18T06:48:11.838Z,2.53
2018-01-18T06:49:15.639Z,2.49
2018-01-18T06:50:18.676Z,2.48
2018-01-18T06:51:21.687Z,2.38
2018-01-18T06:52:24.667Z,2.26
2018-01-18T06:53:27.593Z,2.24
2018-01-18T06:54:30.930Z,2.24
2018-01-18T06:55:33.857Z,2.23
2018-01-18T06:56:36.798Z,2.17
2018-01-18T06:57:39.721Z,2.14
2018-01-18T06:58:42.799Z,2.14
2018-01-18T06:59:45.714Z,2.16
2018-01-18T07:00:49.125Z,2.15
2018-01-18T07:01:52.083Z,2.17
2018-01-18T07:02:55.238Z,2.15
2018-01-18T07:04:04.382Z,2.16
2018-01-18T07:05:10.365Z,2.22
2018-01-18T07:06:23.604Z,2.15
2018-01-18T07:07:27.267Z,2.19
2018-01-18T07:08:30.403Z,2.20
2018-01-18T07:09:33.321Z,2.22
2018-01-18T07:11:51.829Z,2.25
2018-01-18T07:12:54.986Z,2.28
2018-01-18T07:13:57.985Z,2.29
2018-01-18T07:15:00.950Z,2.39
2018-01-18T07:16:04.236Z,2.45
2018-01-18T07:17:07.147Z,2.47
2018-01-18T07:18:10.083Z,2.53
2018-01-18T07:19:13.040Z,2.47
2018-01-18T07:20:16.189Z,2.45
2018-01-18T07:21:19.150Z,2.43
2018-01-18T07:22:22.099Z,2.45
2018-01-18T07:23:25.106Z,2.39
2018-01-18T07:24:29.041Z,2.47
2018-01-18T07:25:31.986Z,2.49
2018-01-18T07:26:35.127Z,2.48
2018-01-18T07:27:38.218Z,2.55
2018-01-18T07:28:41.220Z,2.53
2018-01-18T07:29:44.195Z,2.49
2018-01-18T07:30:47.589Z,2.47
2018-01-18T07:31:50.508Z,2.51
2018-01-18T07:32:53.486Z,2.55
2018-01-18T07:33:56.532Z,2.61
2018-01-18T07:34:59.516Z,2.58
2018-01-18T07:36:02.543Z,2.64
2018-01-18T07:37:05.935Z,2.74
2018-01-18T07:38:09.033Z,2.71
2018-01-18T07:39:12.016Z,2.72
2018-01-18T07:40:14.927Z,2.74
2018-01-18T07:41:18.173Z,2.71
2018-01-18T07:42:21.185Z,2.74
2018-01-18T07:43:24.616Z,2.76
2018-01-18T07:44:27.585Z,2.82
2018-01-18T07:45:30.407Z,2.80
2018-01-18T07:46:33.233Z,2.82
2018-01-18T07:47:36.152Z,2.85
2018-01-18T07:48:39.189Z,2.80
2018-01-18T07:49:42.567Z,2.77
2018-01-18T07:50:45.635Z,2.78
2018-01-18T07:51:48.568Z,2.78
2018-01-18T07:52:51.557Z,2.77
2018-01-18T07:53:58.426Z,2.77
2018-01-18T07:55:01.404Z,2.77
2018-01-18T07:56:04.874Z,2.79
2018-01-18T07:57:11.747Z,2.80
2018-01-18T07:58:14.758Z,3.03
2018-01-18T07:59:17.718Z,3.01
2018-01-18T08:00:20.866Z,3.10
2018-01-18T08:01:23.849Z,3.10
2018-01-18T08:02:27.217Z,3.03
2018-01-18T08:03:34.119Z,2.98
2018-01-18T08:04:37.103Z,3.05
2018-01-18T08:05:40.004Z,3.05
2018-01-18T08:06:42.983Z,3.12
2018-01-18T08:07:45.925Z,3.14
2018-01-18T08:08:49.179Z,3.08
2018-01-18T08:09:52.150Z,3.09
2018-01-18T08:10:55.101Z,3.16
2018-01-18T08:11:58.098Z,3.16
2018-01-18T08:13:01.039Z,3.20
2018-01-18T08:14:03.953Z,3.27
2018-01-18T08:15:07.193Z,3.25
2018-01-18T08:16:10.090Z,3.28
2018-01-18T08:17:14.025Z,3.33
2018-01-18T08:18:16.970Z,3.30
2018-01-18T08:19:19.833Z,3.29
2018-01-18T08:20:22.717Z,3.37
2018-01-18T08:21:26.101Z,3.34
2018-01-18T08:22:29.034Z,3.34
2018-01-18T08:23:32.050Z,3.45
2018-01-18T08:24:35.018Z,3.46
2018-01-18T08:25:38.004Z,3.40
2018-01-18T08:26:40.995Z,3.47
2018-01-18T08:27:44.295Z,3.49
2018-01-18T08:28:47.224Z,3.53
2018-01-18T08:29:50.170Z,3.49
2018-01-18T08:30:53.159Z,3.44
2018-01-18T08:31:56.147Z,3.43
2018-01-18T08:32:59.070Z,3.44
2018-01-18T08:34:02.569Z,3.45
2018-01-18T08:35:05.566Z,3.53
2018-01-18T08:36:08.627Z,3.54
2018-01-18T08:37:12.266Z,3.54
2018-01-18T08:38:15.214Z,3.52
2018-01-18T08:39:18.234Z,3.58
2018-01-18T08:40:21.635Z,3.56
2018-01-18T08:41:24.620Z,3.66
2018-01-18T08:42:27.554Z,3.65
2018-01-18T08:43:30.503Z,3.69
2018-01-18T08:44:33.713Z,3.77
2018-01-18T08:45:36.922Z,3.71
2018-01-18T08:46:40.280Z,3.79
2018-01-18T08:47:43.330Z,3.80
2018-01-18T08:48:46.287Z,4.02
2018-01-18T08:49:49.175Z,3.99
2018-01-18T08:50:52.249Z,3.92
2018-01-18T08:51:55.217Z,3.98
2018-01-18T08:52:58.573Z,4.11
2018-01-18T08:54:02.092Z,4.20
2018-01-18T08:55:05.034Z,4.26
2018-01-18T08:56:07.989Z,4.26
2018-01-18T08:57:10.933Z,4.26
2018-01-18T08:58:13.866Z,4.31
2018-01-18T08:59:17.238Z,4.34
2018-01-18T09:00:20.207Z,4.47
2018-01-18T09:01:23.292Z,4.46
2018-01-18T09:02:26.280Z,4.47
2018-01-18T09:03:29.248Z,4.45
2018-01-18T09:04:32.184Z,4.39
2018-01-18T09:05:35.452Z,4.46
2018-01-18T09:06:38.478Z,4.51
2018-01-18T09:07:41.410Z,4.47
2018-01-18T09:08:44.401Z,4.69
2018-01-18T09:09:47.409Z,4.68
2018-01-18T09:10:50.452Z,4.77
2018-01-18T09:11:54.096Z,4.80
2018-01-18T09:12:58.292Z,4.88
2018-01-18T09:14:03.042Z,4.86
2018-01-18T09:15:10.356Z,4.82
2018-01-18T09:16:14.602Z,4.84
2018-01-18T09:17:18.538Z,4.87
2018-01-18T09:18:22.064Z,5.01
2018-01-18T09:19:25.699Z,5.02
2018-01-18T09:20:29.290Z,5.09
2018-01-18T09:21:32.310Z,5.15
2018-01-18T09:22:35.283Z,5.35
2018-01-18T09:23:39.897Z,5.37
2018-01-18T09:24:42.753Z,5.28
2018-01-18T09:25:45.672Z,5.31
2018-01-18T09:26:48.582Z,5.36
2018-01-18T09:27:51.509Z,5.45
2018-01-18T09:28:54.495Z,5.57
2018-01-18T09:29:57.828Z,5.80
2018-01-18T09:31:01.007Z,5.72
2018-01-18T09:32:04.027Z,5.61
2018-01-18T09:33:06.982Z,5.63
2018-01-18T09:34:10.430Z,5.71
2018-01-18T09:35:13.434Z,5.70
2018-01-18T09:36:16.740Z,6.00
2018-01-18T09:37:19.759Z,6.00
2018-01-18T09:38:22.779Z,5.89
2018-01-18T09:39:25.820Z,6.05
2018-01-18T09:40:30.247Z,6.23
2018-01-18T09:41:33.416Z,6.20
2018-01-18T09:42:36.724Z,6.16
2018-01-18T09:43:39.718Z,6.25
2018-01-18T09:44:42.716Z,6.59
2018-01-18T09:45:45.733Z,7.22
2018-01-18T09:46:48.759Z,7.32
2018-01-18T09:47:52.416Z,6.93
2018-01-18T09:48:55.959Z,6.90
2018-01-18T09:49:58.951Z,6.81
2018-01-18T09:51:01.932Z,6.84
2018-01-18T09:52:04.905Z,6.77
2018-01-18T09:53:07.913Z,6.97
2018-01-18T09:54:10.937Z,6.91
2018-01-18T09:55:14.437Z,6.80
2018-01-18T09:56:18.297Z,6.72
2018-01-18T09:57:21.429Z,6.66
2018-01-18T09:58:24.348Z,6.78
2018-01-18T09:59:27.570Z,6.74
2018-01-18T10:00:30.583Z,6.97
2018-01-18T10:01:33.943Z,6.96
2018-01-18T10:02:36.885Z,6.84
2018-01-18T10:03:39.849Z,6.78
2018-01-18T10:04:43.151Z,6.74
2018-01-18T10:05:46.110Z,6.97
2018-01-18T10:06:49.151Z,6.90
2018-01-18T10:07:52.590Z,6.81
2018-01-18T10:08:56.040Z,6.88
2018-01-18T10:09:59.063Z,6.88
2018-01-18T10:11:03.320Z,7.13
2018-01-18T10:12:07.104Z,7.28
2018-01-18T10:13:11.014Z,7.18
2018-01-18T10:14:15.273Z,7.31
2018-01-18T10:15:18.969Z,7.26
2018-01-18T10:16:22.833Z,7.61
2018-01-18T10:17:26.261Z,7.73
2018-01-18T10:18:29.841Z,8.13
2018-01-18T10:19:32.754Z,8.17
2018-01-18T10:20:35.938Z,8.28
2018-01-18T10:21:38.926Z,8.22
2018-01-18T10:22:42.046Z,8.07
2018-01-18T10:23:45.138Z,7.97
2018-01-18T10:24:48.192Z,7.97
2018-01-18T10:25:51.557Z,7.91
2018-01-18T10:26:54.958Z,8.04
2018-01-18T10:27:57.950Z,8.08
2018-01-18T10:29:01.034Z,8.05
2018-01-18T10:30:04.096Z,8.21
2018-01-18T10:31:07.490Z,8.08
2018-01-18T10:32:10.617Z,8.13
2018-01-18T10:33:14.356Z,8.36
2018-01-18T10:34:17.361Z,8.16
2018-01-18T10:35:20.686Z,8.15
2018-01-18T10:36:23.779Z,8.26
2018-01-18T10:37:26.747Z,8.26
2018-01-18T10:38:29.806Z,8.42
2018-01-18T10:39:33.707Z,8.75
2018-01-18T10:40:37.077Z,8.57
2018-01-18T10:41:40.018Z,8.59
2018-01-18T10:42:43.362Z,8.48
2018-01-18T10:43:47.228Z,8.64
2018-01-18T10:44:51.003Z,8.62
2018-01-18T10:45:55.032Z,8.57
2018-01-18T10:46:59.641Z,8.48
2018-01-18T10:48:03.568Z,8.38
2018-01-18T10:49:08.247Z,8.36
2018-01-18T10:50:11.380Z,8.36
2018-01-18T10:51:15.040Z,8.22
2018-01-18T10:52:18.409Z,8.25
2018-01-18T10:53:21.687Z,8.25
2018-01-18T10:54:25.448Z,8.23
2018-01-18T10:55:29.638Z,8.13
2018-01-18T10:56:33.672Z,8.16
2018-01-18T10:57:36.710Z,8.20
2018-01-18T10:58:40.637Z,8.01
2018-01-18T10:59:43.835Z,8.12
2018-01-18T11:00:47.266Z,8.06
2018-01-18T11:01:50.930Z,8.13
2018-01-18T11:02:54.280Z,8.13
2018-01-18T11:03:57.611Z,8.23
2018-01-18T11:05:01.322Z,8.26
2018-01-18T11:06:04.692Z,8.21
2018-01-18T11:07:08.455Z,8.10
2018-01-18T11:08:12.719Z,8.03
2018-01-18T11:09:16.426Z,7.93
2018-01-18T11:10:20.799Z,7.90
2018-01-18T11:11:24.162Z,8.06
2018-01-18T11:12:27.721Z,7.96
2018-01-18T11:13:31.321Z,7.79
2018-01-18T11:14:34.529Z,7.78
2018-01-18T11:15:37.765Z,7.77
2018-01-18T11:16:41.166Z,7.79
2018-01-18T11:17:44.548Z,7.69
2018-01-18T11:18:48.243Z,7.60
2018-01-18T11:19:51.990Z,7.59
2018-01-18T11:20:55.011Z,7.54
2018-01-18T11:21:58.751Z,7.44
2018-01-18T11:23:01.729Z,7.42
2018-01-18T11:24:05.690Z,7.41
2018-01-18T11:25:10.594Z,7.33
2018-01-18T11:26:15.312Z,7.32
2018-01-18T11:27:19.785Z,7.22
2018-01-18T11:28:24.793Z,7.25
2018-01-18T11:29:29.852Z,7.22
2018-01-18T11:30:35.374Z,7.19
2018-01-18T11:31:41.264Z,7.25
2018-01-18T11:32:45.892Z,7.21
2018-01-18T11:33:49.940Z,7.33
2018-01-18T11:34:52.918Z,7.61
2018-01-18T11:35:56.749Z,7.90
2018-01-18T11:37:02.121Z,7.80
2018-01-18T11:38:06.864Z,7.82
2018-01-18T11:39:11.009Z,7.42
2018-01-18T11:40:15.713Z,7.48
2018-01-18T11:41:20.809Z,7.66
2018-01-18T11:42:25.498Z,7.79
2018-01-18T11:43:30.893Z,8.00
2018-01-18T11:44:35.064Z,7.52
2018-01-18T11:45:38.637Z,7.54
2018-01-18T11:46:42.337Z,7.33
2018-01-18T11:47:46.039Z,7.11
2018-01-18T11:48:50.325Z,6.96
2018-01-18T11:49:54.925Z,6.99
2018-01-18T11:50:59.022Z,7.13
2018-01-18T11:52:02.111Z,7.11
2018-01-18T11:53:06.434Z,6.83
2018-01-18T11:54:10.999Z,6.76
2018-01-18T11:55:15.336Z,6.55
2018-01-18T11:56:19.145Z,6.60
2018-01-18T11:57:23.038Z,6.59
2018-01-18T11:58:27.448Z,6.56
2018-01-18T11:59:32.835Z,6.49
2018-01-18T12:00:37.304Z,6.36
2018-01-18T12:01:45.311Z,6.42
2018-01-18T12:02:51.076Z,6.39
2018-01-18T12:03:55.586Z,6.31
2018-01-18T12:05:00.203Z,6.32
2018-01-18T12:06:04.937Z,6.29
2018-01-18T12:07:08.568Z,6.26
2018-01-18T12:08:13.843Z,6.24
2018-01-18T12:09:18.955Z,6.17
2018-01-18T12:10:23.894Z,6.17
2018-01-18T12:11:28.776Z,6.11
2018-01-18T12:12:35.135Z,6.13
2018-01-18T12:13:40.561Z,6.09
2018-01-18T12:14:45.516Z,6.05
2018-01-18T12:15:51.702Z,5.96
2018-01-18T12:16:57.100Z,5.99
2018-01-18T12:18:02.362Z,6.00
2018-01-18T12:19:07.251Z,6.01
2018-01-18T12:20:11.327Z,6.01
2018-01-18T12:21:15.790Z,6.02
2018-01-18T12:22:20.554Z,5.99
2018-01-18T12:23:26.285Z,5.96
2018-01-18T12:24:31.406Z,5.97
2018-01-18T12:25:36.637Z,5.99
2018-01-18T12:26:41.880Z,5.97
2018-01-18T12:27:47.434Z,6.00
2018-01-18T12:28:52.443Z,6.01
2018-01-18T12:29:57.402Z,5.98
2018-01-18T12:31:02.060Z,5.95
2018-01-18T12:32:07.065Z,5.94
2018-01-18T12:33:11.924Z,5.83
2018-01-18T12:34:16.504Z,5.91
2018-01-18T12:35:21.327Z,5.87
2018-01-18T12:36:25.800Z,5.81
2018-01-18T12:37:30.628Z,5.93
2018-01-18T12:38:35.561Z,5.87
2018-01-18T12:39:40.922Z,5.82
2018-01-18T12:40:45.632Z,5.79
2018-01-18T12:41:50.980Z,5.81
2018-01-18T12:42:56.770Z,5.81
2018-01-18T12:44:01.725Z,5.84
2018-01-18T12:45:10.181Z,5.77
2018-01-18T12:46:16.566Z,5.74
2018-01-18T12:47:22.104Z,5.76
2018-01-18T12:48:26.147Z,5.81
2018-01-18T12:49:31.131Z,5.75
2018-01-18T12:50:36.321Z,5.71
2018-01-18T12:51:42.020Z,5.75
2018-01-18T12:52:47.243Z,5.71
2018-01-18T12:53:53.198Z,5.76
2018-01-18T12:54:59.550Z,5.82
2018-01-18T12:56:04.327Z,5.72
2018-01-18T12:57:09.747Z,5.71
2018-01-18T12:58:15.456Z,5.69
2018-01-18T12:59:20.518Z,5.75
2018-01-18T13:00:24.880Z,5.76
2018-01-18T13:01:28.526Z,5.68
2018-01-18T13:02:33.498Z,5.66
2018-01-18T13:03:38.540Z,5.72
2018-01-18T13:04:44.802Z,5.64
2018-01-18T13:05:50.797Z,5.59
2018-01-18T13:06:55.908Z,5.57
2018-01-18T13:08:00.932Z,5.58
2018-01-18T13:09:07.193Z,5.56
2018-01-18T13:10:12.336Z,5.60
2018-01-18T13:11:17.643Z,5.54
2018-01-18T13:12:22.526Z,5.49
2018-01-18T13:13:27.512Z,5.51
2018-01-18T13:14:32.116Z,5.44
2018-01-18T13:15:36.123Z,5.44
2018-01-18T13:16:41.038Z,5.43
2018-01-18T13:17:46.166Z,5.43
2018-01-18T13:18:51.200Z,5.37
2018-01-18T13:19:56.583Z,5.42
2018-01-18T13:21:03.718Z,5.42
2018-01-18T13:22:09.976Z,5.43
2018-01-18T13:23:16.025Z,5.42
2018-01-18T13:24:22.476Z,5.48
2018-01-18T13:25:29.013Z,5.52
2018-01-18T13:26:34.817Z,5.50
2018-01-18T13:27:39.352Z,5.44
2018-01-18T13:28:44.917Z,5.39
2018-01-18T13:29:50.213Z,5.43
2018-01-18T13:34:13.417Z,5.48
2018-01-18T13:35:19.518Z,5.41
2018-01-18T13:36:24.701Z,5.34
2018-01-18T13:37:31.673Z,5.43
2018-01-18T13:38:38.871Z,5.39
2018-01-18T13:39:43.153Z,5.31
2018-01-18T13:40:48.000Z,5.35
2018-01-18T13:41:52.956Z,5.38
2018-01-18T13:42:57.941Z,5.44
2018-01-18T13:44:03.066Z,5.36
2018-01-18T13:45:08.210Z,5.39
2018-01-18T13:46:14.488Z,5.34
2018-01-18T13:47:19.538Z,5.32
2018-01-18T13:48:24.672Z,5.32
2018-01-18T13:49:31.768Z,5.26
2018-01-18T13:50:37.362Z,5.25
2018-01-18T13:51:43.027Z,5.20
2018-01-18T13:52:49.830Z,5.21
2018-01-18T13:53:55.109Z,5.27
2018-01-18T13:55:00.187Z,5.14
2018-01-18T13:56:05.133Z,5.10
2018-01-18T13:58:38.264Z,5.10
2018-01-18T13:59:44.286Z,5.07
2018-01-18T14:00:49.340Z,5.07
2018-01-18T14:01:53.290Z,5.05
2018-01-18T14:02:57.962Z,5.06
2018-01-18T14:04:04.141Z,5.05
2018-01-18T14:05:09.372Z,5.06
2018-01-18T14:06:15.408Z,4.96
2018-01-18T14:07:21.058Z,4.97
2018-01-18T14:08:26.170Z,4.96
2018-01-18T14:09:32.447Z,5.10
2018-01-18T14:10:38.407Z,5.08
2018-01-18T14:11:43.963Z,5.02
2018-01-18T14:12:50.048Z,5.03